Yvonne K. — PBLX — position and weather

sailwx.info

Track history (hours):
 
Tides and Currents Weather Stations Pressure Air Temp Water Temp Dewpoint Dewpoint Depression Visibility Wind Speed Wind Dir Waves Ship Positions

Yvonne K.

Last reported at 2015-Jul-08 01:33 UTC. Time now 2015-Jul-08 02:12 UTC.
Position N 46°05' W 001°22'.

Length 90 m; draft 3.1 m.

Type: Cargo ship. MMSI: 244948000.

Date/timePositionNaut miles runAvg speedWind from/ knotsBaromVisibWave heightAir tempDewpointWater temp
2015-Jul-08 01:33N 46°05' W 001°22'9 8.6
2015-Jul-08 00:33N 46°02' W 001°34'23910.0
2015-Jul-07 00:33N 44°17' W 006°38'62 9.8
2015-Jul-06 18:14N 43°50' W 007°56'710.5
2015-Jul-06 17:33N 43°46' W 008°05'  
2015-Jul-01 18:22N 49°55' W 003°01'6 6.6
2015-Jul-01 17:31N 49°58' W 002°54'162 9.0
2015-Jun-30 23:24N 50°53' E 001°06'6 7.4
2015-Jun-30 22:33N 50°57' E 001°13'7 7.0
2015-Jun-30 21:33N 51°02' E 001°22'8 8.5
2015-Jun-30 20:33N 51°07' E 001°32'1010.4
2015-Jun-30 19:33N 51°14' E 001°45'1111.3
2015-Jun-30 18:33N 51°23' E 001°55'1110.8
2015-Jun-30 17:33N 51°31' E 002°06'1010.0
2015-Jun-30 16:31N 51°39' E 002°17'9 9.0
2015-Jun-30 15:33N 51°46' E 002°26'12 8.2
2015-Jun-30 14:05N 51°55' E 002°38'4 7.8
2015-Jun-30 13:31N 51°59' E 002°43'7 7.6
2015-Jun-30 12:32N 52°04' E 002°51'46 9.3
2015-Jun-30 07:33N 52°41' E 003°36'1110.5
2015-Jun-30 06:28N 52°50' E 003°49'10 9.7
2015-Jun-30 05:28N 52°57' E 003°59'8 8.9
2015-Jun-30 04:33N 53°03' E 004°09'8 8.3
2015-Jun-30 03:33N 53°09' E 004°19'8 7.5
2015-Jun-30 02:32N 53°15' E 004°26'9 8.0
2015-Jun-30 01:26N 53°23' E 004°33'8 8.7
2015-Jun-30 00:32N 53°28' E 004°42'1010.2
2015-Jun-29 23:33N 53°32' E 004°58'1010.3
2015-Jun-29 22:33N 53°36' E 005°14'1010.0
2015-Jun-29 21:34N 53°39' E 005°30'10 9.5
2015-Jun-29 20:33N 53°42' E 005°45'9 8.6
2015-Jun-29 19:33N 53°45' E 005°59'8 8.1
2015-Jun-29 18:32N 53°47' E 006°12'8 7.9
2015-Jun-29 17:34N 53°49' E 006°25'8 7.9
2015-Jun-29 16:32N 53°52' E 006°38'18 9.0
2015-Jun-29 14:32N 53°56' E 007°08'10 9.9
2015-Jun-29 13:33N 53°59' E 007°24'1010.0
2015-Jun-29 12:34N 54°01' E 007°40'10 9.9
2015-Jun-29 11:33N 54°01' E 007°57'10 9.9
2015-Jun-29 10:32N 54°01' E 008°14'9 9.6
2015-Jun-29 09:33N 53°59' E 008°29'8 7.6
2015-Jun-29 08:34N 53°55' E 008°41'7 6.6
2015-Jun-29 07:33N 53°51' E 008°49'7 7.3
2015-Jun-29 06:33N 53°52' E 009°01'9 9.1
2015-Jun-29 05:33N 53°52' E 009°17'1110.7
2015-Jun-29 04:34N 53°44' E 009°28'1110.9
2015-Jun-29 03:33N 53°35' E 009°38'1110.7
2015-Jun-29 02:33N 53°32' E 009°56'1 1.3
2015-Jun-29 01:32N 53°31' E 009°57'0 0.0
2015-Jun-29 00:31N 53°31' E 009°57'0 0.0
2015-Jun-28 23:31N 53°31' E 009°57'0 0.3
2015-Jun-28 22:30N 53°31' E 009°56'1 1.2
2015-Jun-28 21:31N 53°32' E 009°57'0 0.0
2015-Jun-28 20:31N 53°32' E 009°57'0 0.0
2015-Jun-28 19:31N 53°32' E 009°57'0 0.0
2015-Jun-28 18:31N 53°32' E 009°57'0 0.0
2015-Jun-28 17:31N 53°32' E 009°57'0 0.0
2015-Jun-28 16:31N 53°32' E 009°57'0 0.0
2015-Jun-28 15:31N 53°32' E 009°57'0 0.0
2015-Jun-28 14:31N 53°32' E 009°57'0 0.2
2015-Jun-28 13:33N 53°32' E 009°57'1 1.0
2015-Jun-28 12:32N 53°31' E 009°57'0 0.0
2015-Jun-28 11:32N 53°31' E 009°57'0 0.0
2015-Jun-28 10:32N 53°31' E 009°57'0 0.0
2015-Jun-28 09:25N 53°31' E 009°57'0 0.0
2015-Jun-28 08:30N 53°31' E 009°57'0 0.0
2015-Jun-28 07:27N 53°31' E 009°57'0 0.0
2015-Jun-28 06:30N 53°31' E 009°57'0 0.0
2015-Jun-28 05:33N 53°31' E 009°57'3 2.5
2015-Jun-28 04:33N 53°33' E 009°53'4 4.4
2015-Jun-28 03:33N 53°34' E 009°46'7 6.3
2015-Jun-28 02:31N 53°36' E 009°36'  
Track history (hours):
 
Tides and Currents Weather Stations Pressure Air Temp Water Temp Dewpoint Dewpoint Depression Visibility Wind Speed Wind Dir Waves Ship Positions

Yvonne K.

Last reported at 2015-Jul-08 01:33 UTC. Time now 2015-Jul-08 02:12 UTC.
Position N 46°05' W 001°22'.

Length 90 m; draft 3.1 m.

Type: Cargo ship. MMSI: 244948000.

Date/timePositionNaut miles runAvg speedWind from/ knotsBaromVisibWave heightAir tempDewpointWater temp
2015-Jul-08 01:33N 46°05' W 001°22'9 8.6
2015-Jul-08 00:33N 46°02' W 001°34'23910.0
2015-Jul-07 00:33N 44°17' W 006°38'62 9.8
2015-Jul-06 18:14N 43°50' W 007°56'710.5
2015-Jul-06 17:33N 43°46' W 008°05'  
2015-Jul-01 18:22N 49°55' W 003°01'6 6.6
2015-Jul-01 17:31N 49°58' W 002°54'162 9.0
2015-Jun-30 23:24N 50°53' E 001°06'6 7.4
2015-Jun-30 22:33N 50°57' E 001°13'7 7.0
2015-Jun-30 21:33N 51°02' E 001°22'8 8.5
2015-Jun-30 20:33N 51°07' E 001°32'1010.4
2015-Jun-30 19:33N 51°14' E 001°45'1111.3
2015-Jun-30 18:33N 51°23' E 001°55'1110.8
2015-Jun-30 17:33N 51°31' E 002°06'1010.0
2015-Jun-30 16:31N 51°39' E 002°17'9 9.0
2015-Jun-30 15:33N 51°46' E 002°26'12 8.2
2015-Jun-30 14:05N 51°55' E 002°38'4 7.8
2015-Jun-30 13:31N 51°59' E 002°43'7 7.6
2015-Jun-30 12:32N 52°04' E 002°51'46 9.3
2015-Jun-30 07:33N 52°41' E 003°36'1110.5
2015-Jun-30 06:28N 52°50' E 003°49'10 9.7
2015-Jun-30 05:28N 52°57' E 003°59'8 8.9
2015-Jun-30 04:33N 53°03' E 004°09'8 8.3
2015-Jun-30 03:33N 53°09' E 004°19'8 7.5
2015-Jun-30 02:32N 53°15' E 004°26'9 8.0
2015-Jun-30 01:26N 53°23' E 004°33'8 8.7
2015-Jun-30 00:32N 53°28' E 004°42'1010.2
2015-Jun-29 23:33N 53°32' E 004°58'1010.3
2015-Jun-29 22:33N 53°36' E 005°14'1010.0
2015-Jun-29 21:34N 53°39' E 005°30'10 9.5
2015-Jun-29 20:33N 53°42' E 005°45'9 8.6
2015-Jun-29 19:33N 53°45' E 005°59'8 8.1
2015-Jun-29 18:32N 53°47' E 006°12'8 7.9
2015-Jun-29 17:34N 53°49' E 006°25'8 7.9
2015-Jun-29 16:32N 53°52' E 006°38'18 9.0
2015-Jun-29 14:32N 53°56' E 007°08'10 9.9
2015-Jun-29 13:33N 53°59' E 007°24'1010.0
2015-Jun-29 12:34N 54°01' E 007°40'10 9.9
2015-Jun-29 11:33N 54°01' E 007°57'10 9.9
2015-Jun-29 10:32N 54°01' E 008°14'9 9.6
2015-Jun-29 09:33N 53°59' E 008°29'8 7.6
2015-Jun-29 08:34N 53°55' E 008°41'7 6.6
2015-Jun-29 07:33N 53°51' E 008°49'7 7.3
2015-Jun-29 06:33N 53°52' E 009°01'9 9.1
2015-Jun-29 05:33N 53°52' E 009°17'1110.7
2015-Jun-29 04:34N 53°44' E 009°28'1110.9
2015-Jun-29 03:33N 53°35' E 009°38'1110.7
2015-Jun-29 02:33N 53°32' E 009°56'1 1.3
2015-Jun-29 01:32N 53°31' E 009°57'0 0.0
2015-Jun-29 00:31N 53°31' E 009°57'0 0.0
2015-Jun-28 23:31N 53°31' E 009°57'0 0.3
2015-Jun-28 22:30N 53°31' E 009°56'1 1.2
2015-Jun-28 21:31N 53°32' E 009°57'0 0.0
2015-Jun-28 20:31N 53°32' E 009°57'0 0.0
2015-Jun-28 19:31N 53°32' E 009°57'0 0.0
2015-Jun-28 18:31N 53°32' E 009°57'0 0.0
2015-Jun-28 17:31N 53°32' E 009°57'0 0.0
2015-Jun-28 16:31N 53°32' E 009°57'0 0.0
2015-Jun-28 15:31N 53°32' E 009°57'0 0.0
2015-Jun-28 14:31N 53°32' E 009°57'0 0.2
2015-Jun-28 13:33N 53°32' E 009°57'1 1.0
2015-Jun-28 12:32N 53°31' E 009°57'0 0.0
2015-Jun-28 11:32N 53°31' E 009°57'0 0.0
2015-Jun-28 10:32N 53°31' E 009°57'0 0.0
2015-Jun-28 09:25N 53°31' E 009°57'0 0.0
2015-Jun-28 08:30N 53°31' E 009°57'0 0.0
2015-Jun-28 07:27N 53°31' E 009°57'0 0.0
2015-Jun-28 06:30N 53°31' E 009°57'0 0.0
2015-Jun-28 05:33N 53°31' E 009°57'3 2.5
2015-Jun-28 04:33N 53°33' E 009°53'4 4.4
2015-Jun-28 03:33N 53°34' E 009°46'7 6.3
2015-Jun-28 02:31N 53°36' E 009°36'  

Dump ship's entire track history